sensor_id;sensor_type;location;lat;lon;timestamp;P1;durP1;ratioP1;P2;durP2;ratioP2
76714;SDS011;65644;44.990;20.288;2023-11-22T00:00:55;46.05;;;37.65;;
76714;SDS011;65644;44.990;20.288;2023-11-22T00:03:21;47.65;;;36.15;;
76714;SDS011;65644;44.990;20.288;2023-11-22T00:05:49;46.72;;;35.45;;
76714;SDS011;65644;44.990;20.288;2023-11-22T00:08:15;47.67;;;36.75;;
76714;SDS011;65644;44.990;20.288;2023-11-22T00:10:41;45.00;;;35.63;;
76714;SDS011;65644;44.990;20.288;2023-11-22T00:13:07;44.45;;;35.28;;
76714;SDS011;65644;44.990;20.288;2023-11-22T00:15:33;45.20;;;35.50;;
76714;SDS011;65644;44.990;20.288;2023-11-22T00:18:01;49.60;;;37.60;;
76714;SDS011;65644;44.990;20.288;2023-11-22T00:20:28;48.47;;;37.63;;
76714;SDS011;65644;44.990;20.288;2023-11-22T00:22:54;49.25;;;37.40;;
76714;SDS011;65644;44.990;20.288;2023-11-22T00:25:20;49.17;;;38.15;;
76714;SDS011;65644;44.990;20.288;2023-11-22T00:27:46;49.38;;;37.00;;
76714;SDS011;65644;44.990;20.288;2023-11-22T00:30:13;50.65;;;37.25;;
76714;SDS011;65644;44.990;20.288;2023-11-22T00:32:39;53.58;;;40.60;;
76714;SDS011;65644;44.990;20.288;2023-11-22T00:35:06;55.10;;;39.70;;
76714;SDS011;65644;44.990;20.288;2023-11-22T00:37:33;50.22;;;38.50;;
76714;SDS011;65644;44.990;20.288;2023-11-22T00:40:00;50.00;;;38.05;;
76714;SDS011;65644;44.990;20.288;2023-11-22T00:42:31;48.83;;;37.95;;
76714;SDS011;65644;44.990;20.288;2023-11-22T00:44:57;48.22;;;37.33;;
76714;SDS011;65644;44.990;20.288;2023-11-22T00:47:23;47.92;;;37.28;;
76714;SDS011;65644;44.990;20.288;2023-11-22T00:49:49;45.67;;;36.63;;
76714;SDS011;65644;44.990;20.288;2023-11-22T00:52:15;49.67;;;35.85;;
76714;SDS011;65644;44.990;20.288;2023-11-22T00:54:41;43.83;;;34.65;;
76714;SDS011;65644;44.990;20.288;2023-11-22T00:57:07;41.35;;;34.08;;
76714;SDS011;65644;44.990;20.288;2023-11-22T00:59:33;43.30;;;34.60;;
76714;SDS011;65644;44.990;20.288;2023-11-22T01:01:59;41.88;;;33.63;;
76714;SDS011;65644;44.990;20.288;2023-11-22T01:04:27;41.08;;;32.47;;
76714;SDS011;65644;44.990;20.288;2023-11-22T01:06:53;42.85;;;34.35;;
76714;SDS011;65644;44.990;20.288;2023-11-22T01:09:19;43.65;;;33.35;;
76714;SDS011;65644;44.990;20.288;2023-11-22T01:11:46;38.85;;;32.65;;
76714;SDS011;65644;44.990;20.288;2023-11-22T01:14:12;40.42;;;32.70;;
76714;SDS011;65644;44.990;20.288;2023-11-22T01:16:38;42.38;;;34.30;;
76714;SDS011;65644;44.990;20.288;2023-11-22T01:19:04;39.95;;;33.63;;
76714;SDS011;65644;44.990;20.288;2023-11-22T01:21:30;41.63;;;34.00;;
76714;SDS011;65644;44.990;20.288;2023-11-22T01:23:56;41.72;;;34.45;;
76714;SDS011;65644;44.990;20.288;2023-11-22T01:26:23;42.97;;;34.30;;
76714;SDS011;65644;44.990;20.288;2023-11-22T01:28:49;40.92;;;34.33;;
76714;SDS011;65644;44.990;20.288;2023-11-22T01:31:15;42.97;;;35.75;;
76714;SDS011;65644;44.990;20.288;2023-11-22T01:33:45;41.63;;;35.05;;
76714;SDS011;65644;44.990;20.288;2023-11-22T01:36:12;40.65;;;33.88;;
76714;SDS011;65644;44.990;20.288;2023-11-22T01:38:40;42.95;;;34.83;;
76714;SDS011;65644;44.990;20.288;2023-11-22T01:41:06;43.45;;;35.17;;
76714;SDS011;65644;44.990;20.288;2023-11-22T01:43:32;42.60;;;33.88;;
76714;SDS011;65644;44.990;20.288;2023-11-22T01:45:58;45.38;;;35.03;;
76714;SDS011;65644;44.990;20.288;2023-11-22T01:48:25;39.03;;;33.15;;
76714;SDS011;65644;44.990;20.288;2023-11-22T01:50:51;42.88;;;33.47;;
76714;SDS011;65644;44.990;20.288;2023-11-22T01:53:18;39.63;;;31.88;;
76714;SDS011;65644;44.990;20.288;2023-11-22T01:55:46;39.10;;;32.22;;
76714;SDS011;65644;44.990;20.288;2023-11-22T01:58:13;39.00;;;31.73;;
76714;SDS011;65644;44.990;20.288;2023-11-22T02:00:44;39.13;;;32.03;;
76714;SDS011;65644;44.990;20.288;2023-11-22T02:03:11;41.95;;;31.63;;
76714;SDS011;65644;44.990;20.288;2023-11-22T02:05:39;40.60;;;33.47;;
76714;SDS011;65644;44.990;20.288;2023-11-22T02:08:07;34.88;;;29.40;;
76714;SDS011;65644;44.990;20.288;2023-11-22T02:10:33;35.08;;;29.35;;
76714;SDS011;65644;44.990;20.288;2023-11-22T02:13:01;34.75;;;28.40;;
76714;SDS011;65644;44.990;20.288;2023-11-22T02:15:30;34.95;;;29.30;;
76714;SDS011;65644;44.990;20.288;2023-11-22T02:17:56;34.03;;;28.23;;
76714;SDS011;65644;44.990;20.288;2023-11-22T02:20:23;34.50;;;28.33;;
76714;SDS011;65644;44.990;20.288;2023-11-22T02:22:49;33.88;;;27.23;;
76714;SDS011;65644;44.990;20.288;2023-11-22T02:25:15;33.45;;;27.30;;
76714;SDS011;65644;44.990;20.288;2023-11-22T02:27:41;36.05;;;26.08;;
76714;SDS011;65644;44.990;20.288;2023-11-22T02:30:08;34.33;;;25.60;;
76714;SDS011;65644;44.990;20.288;2023-11-22T02:32:34;31.13;;;24.17;;
76714;SDS011;65644;44.990;20.288;2023-11-22T02:35:00;37.30;;;25.30;;
76714;SDS011;65644;44.990;20.288;2023-11-22T02:37:26;30.85;;;25.75;;
76714;SDS011;65644;44.990;20.288;2023-11-22T02:40:04;35.03;;;25.15;;
76714;SDS011;65644;44.990;20.288;2023-11-22T02:42:32;31.60;;;24.83;;
76714;SDS011;65644;44.990;20.288;2023-11-22T02:44:58;33.35;;;24.33;;
76714;SDS011;65644;44.990;20.288;2023-11-22T02:47:24;33.33;;;24.75;;
76714;SDS011;65644;44.990;20.288;2023-11-22T02:49:51;35.63;;;27.25;;
76714;SDS011;65644;44.990;20.288;2023-11-22T02:52:17;33.42;;;25.95;;
76714;SDS011;65644;44.990;20.288;2023-11-22T02:54:43;34.72;;;26.35;;
76714;SDS011;65644;44.990;20.288;2023-11-22T02:57:13;31.65;;;26.05;;
76714;SDS011;65644;44.990;20.288;2023-11-22T02:59:42;34.25;;;26.42;;
76714;SDS011;65644;44.990;20.288;2023-11-22T03:02:08;35.72;;;26.13;;
76714;SDS011;65644;44.990;20.288;2023-11-22T03:04:35;32.85;;;25.92;;
76714;SDS011;65644;44.990;20.288;2023-11-22T03:07:01;34.78;;;25.05;;
76714;SDS011;65644;44.990;20.288;2023-11-22T03:09:27;34.40;;;25.85;;
76714;SDS011;65644;44.990;20.288;2023-11-22T03:11:53;37.90;;;27.27;;
76714;SDS011;65644;44.990;20.288;2023-11-22T03:14:19;34.80;;;26.08;;
76714;SDS011;65644;44.990;20.288;2023-11-22T03:16:47;34.95;;;26.52;;
76714;SDS011;65644;44.990;20.288;2023-11-22T03:19:13;35.38;;;26.45;;
76714;SDS011;65644;44.990;20.288;2023-11-22T03:21:40;34.63;;;26.80;;
76714;SDS011;65644;44.990;20.288;2023-11-22T03:24:07;36.22;;;26.65;;
76714;SDS011;65644;44.990;20.288;2023-11-22T03:26:33;33.45;;;25.48;;
76714;SDS011;65644;44.990;20.288;2023-11-22T03:29:00;32.78;;;26.05;;
76714;SDS011;65644;44.990;20.288;2023-11-22T03:31:26;35.70;;;26.95;;
76714;SDS011;65644;44.990;20.288;2023-11-22T03:33:53;38.10;;;27.83;;
76714;SDS011;65644;44.990;20.288;2023-11-22T03:36:19;35.78;;;27.27;;
76714;SDS011;65644;44.990;20.288;2023-11-22T03:38:46;35.38;;;26.67;;
76714;SDS011;65644;44.990;20.288;2023-11-22T03:41:12;36.13;;;26.70;;
76714;SDS011;65644;44.990;20.288;2023-11-22T03:43:38;34.70;;;27.30;;
76714;SDS011;65644;44.990;20.288;2023-11-22T03:46:04;34.42;;;26.45;;
76714;SDS011;65644;44.990;20.288;2023-11-22T03:48:30;39.60;;;27.75;;
76714;SDS011;65644;44.990;20.288;2023-11-22T03:50:56;35.83;;;27.35;;
76714;SDS011;65644;44.990;20.288;2023-11-22T03:53:22;36.05;;;27.67;;
76714;SDS011;65644;44.990;20.288;2023-11-22T03:55:49;35.75;;;27.80;;
76714;SDS011;65644;44.990;20.288;2023-11-22T03:58:15;34.65;;;27.95;;
76714;SDS011;65644;44.990;20.288;2023-11-22T04:00:43;37.00;;;27.63;;
76714;SDS011;65644;44.990;20.288;2023-11-22T04:03:09;37.38;;;28.23;;
76714;SDS011;65644;44.990;20.288;2023-11-22T04:05:35;40.88;;;28.38;;
76714;SDS011;65644;44.990;20.288;2023-11-22T04:08:01;37.42;;;28.65;;
76714;SDS011;65644;44.990;20.288;2023-11-22T04:10:27;37.83;;;29.00;;
76714;SDS011;65644;44.990;20.288;2023-11-22T04:12:53;36.45;;;28.17;;
76714;SDS011;65644;44.990;20.288;2023-11-22T04:15:19;39.13;;;29.85;;
76714;SDS011;65644;44.990;20.288;2023-11-22T04:17:45;39.75;;;29.63;;
76714;SDS011;65644;44.990;20.288;2023-11-22T04:20:12;40.55;;;30.33;;
76714;SDS011;65644;44.990;20.288;2023-11-22T04:22:43;43.22;;;30.75;;
76714;SDS011;65644;44.990;20.288;2023-11-22T04:25:12;39.03;;;30.77;;
76714;SDS011;65644;44.990;20.288;2023-11-22T04:27:39;36.92;;;29.48;;
76714;SDS011;65644;44.990;20.288;2023-11-22T04:30:05;42.28;;;29.42;;
76714;SDS011;65644;44.990;20.288;2023-11-22T04:32:33;40.38;;;31.08;;
76714;SDS011;65644;44.990;20.288;2023-11-22T04:35:01;42.75;;;30.90;;
76714;SDS011;65644;44.990;20.288;2023-11-22T04:37:29;40.65;;;29.45;;
76714;SDS011;65644;44.990;20.288;2023-11-22T04:39:57;43.65;;;31.92;;
76714;SDS011;65644;44.990;20.288;2023-11-22T04:42:23;41.25;;;31.25;;
76714;SDS011;65644;44.990;20.288;2023-11-22T04:44:49;43.70;;;31.95;;
76714;SDS011;65644;44.990;20.288;2023-11-22T04:47:15;43.78;;;31.67;;
76714;SDS011;65644;44.990;20.288;2023-11-22T04:49:41;42.33;;;32.65;;
76714;SDS011;65644;44.990;20.288;2023-11-22T04:52:08;41.33;;;32.28;;
76714;SDS011;65644;44.990;20.288;2023-11-22T04:54:34;41.13;;;31.60;;
76714;SDS011;65644;44.990;20.288;2023-11-22T04:57:00;41.97;;;31.08;;
76714;SDS011;65644;44.990;20.288;2023-11-22T04:59:26;42.45;;;32.55;;
76714;SDS011;65644;44.990;20.288;2023-11-22T05:01:52;42.88;;;33.60;;
76714;SDS011;65644;44.990;20.288;2023-11-22T05:04:18;44.10;;;33.22;;
76714;SDS011;65644;44.990;20.288;2023-11-22T05:06:44;46.92;;;35.47;;
76714;SDS011;65644;44.990;20.288;2023-11-22T05:09:11;53.28;;;35.03;;
76714;SDS011;65644;44.990;20.288;2023-11-22T05:11:38;49.22;;;36.22;;
76714;SDS011;65644;44.990;20.288;2023-11-22T05:14:06;53.35;;;35.83;;
76714;SDS011;65644;44.990;20.288;2023-11-22T05:16:33;54.05;;;36.38;;
76714;SDS011;65644;44.990;20.288;2023-11-22T05:19:00;50.10;;;36.15;;
76714;SDS011;65644;44.990;20.288;2023-11-22T05:21:26;51.75;;;37.42;;
76714;SDS011;65644;44.990;20.288;2023-11-22T05:23:52;55.00;;;37.38;;
76714;SDS011;65644;44.990;20.288;2023-11-22T05:26:19;53.80;;;38.90;;
76714;SDS011;65644;44.990;20.288;2023-11-22T05:28:47;51.45;;;37.92;;
76714;SDS011;65644;44.990;20.288;2023-11-22T05:31:13;59.53;;;40.22;;
76714;SDS011;65644;44.990;20.288;2023-11-22T05:33:41;63.70;;;39.38;;
76714;SDS011;65644;44.990;20.288;2023-11-22T05:36:07;65.50;;;43.05;;
76714;SDS011;65644;44.990;20.288;2023-11-22T05:38:33;64.65;;;42.20;;
76714;SDS011;65644;44.990;20.288;2023-11-22T05:41:00;64.45;;;42.08;;
76714;SDS011;65644;44.990;20.288;2023-11-22T05:43:26;60.47;;;40.72;;
76714;SDS011;65644;44.990;20.288;2023-11-22T05:45:52;59.80;;;40.03;;
76714;SDS011;65644;44.990;20.288;2023-11-22T05:48:19;64.63;;;41.85;;
76714;SDS011;65644;44.990;20.288;2023-11-22T05:50:47;67.30;;;43.55;;
76714;SDS011;65644;44.990;20.288;2023-11-22T05:53:14;66.30;;;43.70;;
76714;SDS011;65644;44.990;20.288;2023-11-22T05:55:47;65.72;;;42.50;;
76714;SDS011;65644;44.990;20.288;2023-11-22T05:58:14;75.10;;;45.38;;
76714;SDS011;65644;44.990;20.288;2023-11-22T06:00:43;68.15;;;42.05;;
76714;SDS011;65644;44.990;20.288;2023-11-22T06:03:10;67.82;;;43.15;;
76714;SDS011;65644;44.990;20.288;2023-11-22T06:05:36;63.00;;;41.65;;
76714;SDS011;65644;44.990;20.288;2023-11-22T06:08:02;65.43;;;40.90;;
76714;SDS011;65644;44.990;20.288;2023-11-22T06:10:28;69.53;;;42.05;;
76714;SDS011;65644;44.990;20.288;2023-11-22T06:12:54;66.97;;;42.75;;
76714;SDS011;65644;44.990;20.288;2023-11-22T06:15:20;67.55;;;43.03;;
76714;SDS011;65644;44.990;20.288;2023-11-22T06:17:47;72.30;;;44.58;;
76714;SDS011;65644;44.990;20.288;2023-11-22T06:20:16;75.22;;;43.25;;
76714;SDS011;65644;44.990;20.288;2023-11-22T06:22:42;77.68;;;44.58;;
76714;SDS011;65644;44.990;20.288;2023-11-22T06:25:09;73.78;;;42.75;;
76714;SDS011;65644;44.990;20.288;2023-11-22T06:27:38;69.25;;;44.05;;
76714;SDS011;65644;44.990;20.288;2023-11-22T06:30:05;68.20;;;43.10;;
76714;SDS011;65644;44.990;20.288;2023-11-22T06:32:31;71.75;;;43.55;;
76714;SDS011;65644;44.990;20.288;2023-11-22T06:34:59;71.85;;;43.00;;
76714;SDS011;65644;44.990;20.288;2023-11-22T06:37:25;72.78;;;46.33;;
76714;SDS011;65644;44.990;20.288;2023-11-22T06:39:51;76.50;;;45.90;;
76714;SDS011;65644;44.990;20.288;2023-11-22T06:42:17;75.45;;;44.95;;
76714;SDS011;65644;44.990;20.288;2023-11-22T06:44:47;74.80;;;45.00;;
76714;SDS011;65644;44.990;20.288;2023-11-22T06:47:13;79.93;;;44.90;;
76714;SDS011;65644;44.990;20.288;2023-11-22T06:49:39;79.20;;;45.30;;
76714;SDS011;65644;44.990;20.288;2023-11-22T06:52:05;80.38;;;45.72;;
76714;SDS011;65644;44.990;20.288;2023-11-22T06:54:33;79.82;;;43.67;;
76714;SDS011;65644;44.990;20.288;2023-11-22T06:57:01;79.55;;;45.80;;
76714;SDS011;65644;44.990;20.288;2023-11-22T06:59:27;80.03;;;46.25;;
76714;SDS011;65644;44.990;20.288;2023-11-22T07:01:54;76.45;;;43.17;;
76714;SDS011;65644;44.990;20.288;2023-11-22T07:04:22;74.45;;;42.78;;
76714;SDS011;65644;44.990;20.288;2023-11-22T07:06:48;75.03;;;42.97;;
76714;SDS011;65644;44.990;20.288;2023-11-22T07:09:15;77.60;;;44.85;;
76714;SDS011;65644;44.990;20.288;2023-11-22T07:11:41;77.97;;;44.50;;
76714;SDS011;65644;44.990;20.288;2023-11-22T07:14:09;78.78;;;46.10;;
76714;SDS011;65644;44.990;20.288;2023-11-22T07:16:35;76.53;;;43.50;;
76714;SDS011;65644;44.990;20.288;2023-11-22T07:19:02;80.25;;;43.75;;
76714;SDS011;65644;44.990;20.288;2023-11-22T07:21:31;82.55;;;44.30;;
76714;SDS011;65644;44.990;20.288;2023-11-22T07:23:57;82.72;;;43.53;;
76714;SDS011;65644;44.990;20.288;2023-11-22T07:26:24;78.88;;;44.72;;
76714;SDS011;65644;44.990;20.288;2023-11-22T07:28:53;81.05;;;45.53;;
76714;SDS011;65644;44.990;20.288;2023-11-22T07:31:19;79.45;;;43.70;;
76714;SDS011;65644;44.990;20.288;2023-11-22T07:33:47;89.50;;;46.00;;
76714;SDS011;65644;44.990;20.288;2023-11-22T07:36:13;82.43;;;45.97;;
76714;SDS011;65644;44.990;20.288;2023-11-22T07:38:40;80.85;;;46.28;;
76714;SDS011;65644;44.990;20.288;2023-11-22T07:41:08;84.05;;;46.47;;
76714;SDS011;65644;44.990;20.288;2023-11-22T07:43:34;91.55;;;48.63;;
76714;SDS011;65644;44.990;20.288;2023-11-22T07:46:04;89.70;;;48.83;;
76714;SDS011;65644;44.990;20.288;2023-11-22T07:48:30;89.28;;;48.90;;
76714;SDS011;65644;44.990;20.288;2023-11-22T07:50:56;84.97;;;46.65;;
76714;SDS011;65644;44.990;20.288;2023-11-22T07:53:24;87.13;;;46.67;;
76714;SDS011;65644;44.990;20.288;2023-11-22T07:55:54;81.72;;;46.83;;
76714;SDS011;65644;44.990;20.288;2023-11-22T07:58:21;80.10;;;45.17;;
76714;SDS011;65644;44.990;20.288;2023-11-22T08:00:47;85.25;;;45.85;;
76714;SDS011;65644;44.990;20.288;2023-11-22T08:03:13;87.22;;;47.85;;
76714;SDS011;65644;44.990;20.288;2023-11-22T08:05:43;80.85;;;44.45;;
76714;SDS011;65644;44.990;20.288;2023-11-22T08:08:13;82.13;;;45.45;;
76714;SDS011;65644;44.990;20.288;2023-11-22T08:10:40;80.55;;;45.75;;
76714;SDS011;65644;44.990;20.288;2023-11-22T08:13:07;74.03;;;43.35;;
76714;SDS011;65644;44.990;20.288;2023-11-22T08:15:34;75.47;;;42.88;;
76714;SDS011;65644;44.990;20.288;2023-11-22T08:18:00;77.45;;;42.75;;
76714;SDS011;65644;44.990;20.288;2023-11-22T08:20:26;76.07;;;42.83;;
76714;SDS011;65644;44.990;20.288;2023-11-22T08:22:52;73.63;;;42.00;;
76714;SDS011;65644;44.990;20.288;2023-11-22T08:25:19;80.80;;;45.17;;
76714;SDS011;65644;44.990;20.288;2023-11-22T08:27:45;85.30;;;46.47;;
76714;SDS011;65644;44.990;20.288;2023-11-22T08:30:11;78.93;;;43.47;;
76714;SDS011;65644;44.990;20.288;2023-11-22T08:32:44;77.38;;;43.92;;
76714;SDS011;65644;44.990;20.288;2023-11-22T08:35:13;74.30;;;41.42;;
76714;SDS011;65644;44.990;20.288;2023-11-22T08:37:41;74.53;;;43.15;;
76714;SDS011;65644;44.990;20.288;2023-11-22T08:40:07;75.97;;;43.53;;
76714;SDS011;65644;44.990;20.288;2023-11-22T08:42:36;73.15;;;41.90;;
76714;SDS011;65644;44.990;20.288;2023-11-22T08:45:02;74.15;;;43.13;;
76714;SDS011;65644;44.990;20.288;2023-11-22T08:47:29;74.43;;;41.15;;
76714;SDS011;65644;44.990;20.288;2023-11-22T08:49:56;72.57;;;40.90;;
76714;SDS011;65644;44.990;20.288;2023-11-22T08:52:22;67.03;;;38.17;;
76714;SDS011;65644;44.990;20.288;2023-11-22T08:54:49;72.68;;;41.97;;
76714;SDS011;65644;44.990;20.288;2023-11-22T08:57:16;65.55;;;39.30;;
76714;SDS011;65644;44.990;20.288;2023-11-22T08:59:42;72.18;;;40.80;;
76714;SDS011;65644;44.990;20.288;2023-11-22T09:02:09;72.95;;;42.05;;
76714;SDS011;65644;44.990;20.288;2023-11-22T09:04:37;69.03;;;42.17;;
76714;SDS011;65644;44.990;20.288;2023-11-22T09:07:06;72.80;;;40.85;;
76714;SDS011;65644;44.990;20.288;2023-11-22T09:09:33;68.22;;;39.47;;
76714;SDS011;65644;44.990;20.288;2023-11-22T09:12:01;71.63;;;40.10;;
76714;SDS011;65644;44.990;20.288;2023-11-22T09:14:27;72.65;;;40.50;;
76714;SDS011;65644;44.990;20.288;2023-11-22T09:16:53;66.70;;;41.47;;
76714;SDS011;65644;44.990;20.288;2023-11-22T09:19:23;73.78;;;40.97;;
76714;SDS011;65644;44.990;20.288;2023-11-22T09:21:50;70.63;;;41.15;;
76714;SDS011;65644;44.990;20.288;2023-11-22T09:24:16;72.32;;;40.20;;
76714;SDS011;65644;44.990;20.288;2023-11-22T09:26:43;70.43;;;40.22;;
76714;SDS011;65644;44.990;20.288;2023-11-22T09:29:12;66.85;;;39.90;;
76714;SDS011;65644;44.990;20.288;2023-11-22T09:31:39;69.95;;;39.70;;
76714;SDS011;65644;44.990;20.288;2023-11-22T09:34:07;69.78;;;38.70;;
76714;SDS011;65644;44.990;20.288;2023-11-22T09:36:33;74.55;;;42.13;;
76714;SDS011;65644;44.990;20.288;2023-11-22T09:38:59;72.80;;;41.50;;
76714;SDS011;65644;44.990;20.288;2023-11-22T09:41:27;82.57;;;45.53;;
76714;SDS011;65644;44.990;20.288;2023-11-22T09:43:54;91.22;;;45.55;;
76714;SDS011;65644;44.990;20.288;2023-11-22T09:46:21;85.15;;;44.17;;
76714;SDS011;65644;44.990;20.288;2023-11-22T09:48:48;78.13;;;43.08;;
76714;SDS011;65644;44.990;20.288;2023-11-22T09:56:13;84.72;;;43.83;;
76714;SDS011;65644;44.990;20.288;2023-11-22T09:58:41;76.63;;;42.92;;
76714;SDS011;65644;44.990;20.288;2023-11-22T10:01:13;79.10;;;44.92;;
76714;SDS011;65644;44.990;20.288;2023-11-22T10:03:39;77.30;;;43.97;;
76714;SDS011;65644;44.990;20.288;2023-11-22T10:06:05;73.45;;;44.13;;
76714;SDS011;65644;44.990;20.288;2023-11-22T10:08:32;80.60;;;43.15;;
76714;SDS011;65644;44.990;20.288;2023-11-22T10:10:58;77.78;;;43.60;;
76714;SDS011;65644;44.990;20.288;2023-11-22T10:13:25;72.07;;;41.97;;
76714;SDS011;65644;44.990;20.288;2023-11-22T10:15:52;70.80;;;43.42;;
76714;SDS011;65644;44.990;20.288;2023-11-22T10:18:18;70.60;;;41.08;;
76714;SDS011;65644;44.990;20.288;2023-11-22T10:20:46;79.13;;;43.88;;
76714;SDS011;65644;44.990;20.288;2023-11-22T10:23:14;74.75;;;43.65;;
76714;SDS011;65644;44.990;20.288;2023-11-22T10:25:44;65.75;;;40.00;;
76714;SDS011;65644;44.990;20.288;2023-11-22T10:28:10;70.55;;;41.45;;
76714;SDS011;65644;44.990;20.288;2023-11-22T10:30:37;65.57;;;40.08;;
76714;SDS011;65644;44.990;20.288;2023-11-22T10:33:05;70.85;;;41.35;;
76714;SDS011;65644;44.990;20.288;2023-11-22T10:35:31;67.13;;;40.55;;
76714;SDS011;65644;44.990;20.288;2023-11-22T10:38:00;67.40;;;39.15;;
76714;SDS011;65644;44.990;20.288;2023-11-22T10:40:31;69.95;;;38.38;;
76714;SDS011;65644;44.990;20.288;2023-11-22T10:42:57;66.28;;;38.65;;
76714;SDS011;65644;44.990;20.288;2023-11-22T10:45:24;68.53;;;38.92;;
76714;SDS011;65644;44.990;20.288;2023-11-22T10:47:52;72.00;;;38.45;;
76714;SDS011;65644;44.990;20.288;2023-11-22T10:50:20;62.35;;;38.97;;
76714;SDS011;65644;44.990;20.288;2023-11-22T10:52:47;66.65;;;39.80;;
76714;SDS011;65644;44.990;20.288;2023-11-22T10:55:17;69.63;;;39.10;;
76714;SDS011;65644;44.990;20.288;2023-11-22T10:57:45;64.80;;;38.58;;
76714;SDS011;65644;44.990;20.288;2023-11-22T11:00:16;65.40;;;37.72;;
76714;SDS011;65644;44.990;20.288;2023-11-22T11:02:48;66.07;;;38.38;;
76714;SDS011;65644;44.990;20.288;2023-11-22T11:05:17;73.30;;;39.10;;
76714;SDS011;65644;44.990;20.288;2023-11-22T11:07:48;67.30;;;37.60;;
76714;SDS011;65644;44.990;20.288;2023-11-22T11:10:16;70.75;;;39.47;;
76714;SDS011;65644;44.990;20.288;2023-11-22T11:12:44;67.97;;;39.92;;
76714;SDS011;65644;44.990;20.288;2023-11-22T11:15:10;64.72;;;37.50;;
76714;SDS011;65644;44.990;20.288;2023-11-22T11:17:37;74.40;;;39.75;;
76714;SDS011;65644;44.990;20.288;2023-11-22T11:20:04;68.97;;;38.92;;
76714;SDS011;65644;44.990;20.288;2023-11-22T11:22:36;77.90;;;44.15;;
76714;SDS011;65644;44.990;20.288;2023-11-22T11:25:06;74.75;;;44.05;;
76714;SDS011;65644;44.990;20.288;2023-11-22T11:27:33;66.93;;;40.00;;
76714;SDS011;65644;44.990;20.288;2023-11-22T11:30:01;69.28;;;42.50;;
76714;SDS011;65644;44.990;20.288;2023-11-22T11:32:31;65.68;;;38.95;;
76714;SDS011;65644;44.990;20.288;2023-11-22T11:34:58;70.20;;;38.88;;
76714;SDS011;65644;44.990;20.288;2023-11-22T11:37:31;63.60;;;36.20;;
76714;SDS011;65644;44.990;20.288;2023-11-22T11:40:02;63.40;;;37.47;;
76714;SDS011;65644;44.990;20.288;2023-11-22T11:42:46;64.82;;;36.83;;
76714;SDS011;65644;44.990;20.288;2023-11-22T11:45:14;60.63;;;36.08;;
76714;SDS011;65644;44.990;20.288;2023-11-22T11:47:41;62.35;;;37.08;;
76714;SDS011;65644;44.990;20.288;2023-11-22T11:50:08;60.42;;;36.72;;
76714;SDS011;65644;44.990;20.288;2023-11-22T11:52:35;63.05;;;35.97;;
76714;SDS011;65644;44.990;20.288;2023-11-22T11:55:04;60.88;;;36.78;;
76714;SDS011;65644;44.990;20.288;2023-11-22T11:57:31;57.30;;;37.30;;
76714;SDS011;65644;44.990;20.288;2023-11-22T11:59:57;61.65;;;38.10;;
76714;SDS011;65644;44.990;20.288;2023-11-22T12:02:24;57.08;;;36.30;;
76714;SDS011;65644;44.990;20.288;2023-11-22T12:04:50;58.10;;;35.28;;
76714;SDS011;65644;44.990;20.288;2023-11-22T12:07:17;55.92;;;36.22;;
76714;SDS011;65644;44.990;20.288;2023-11-22T12:09:43;53.60;;;36.53;;
76714;SDS011;65644;44.990;20.288;2023-11-22T12:12:09;55.53;;;36.47;;
76714;SDS011;65644;44.990;20.288;2023-11-22T12:14:35;55.30;;;37.88;;
76714;SDS011;65644;44.990;20.288;2023-11-22T12:17:01;58.55;;;35.85;;
76714;SDS011;65644;44.990;20.288;2023-11-22T12:19:31;68.20;;;43.10;;
76714;SDS011;65644;44.990;20.288;2023-11-22T12:21:58;59.78;;;38.42;;
76714;SDS011;65644;44.990;20.288;2023-11-22T12:24:24;56.65;;;39.28;;
76714;SDS011;65644;44.990;20.288;2023-11-22T12:26:50;59.80;;;39.90;;
76714;SDS011;65644;44.990;20.288;2023-11-22T12:29:17;61.22;;;41.65;;
76714;SDS011;65644;44.990;20.288;2023-11-22T12:31:49;59.10;;;39.95;;
76714;SDS011;65644;44.990;20.288;2023-11-22T12:34:20;62.13;;;40.83;;
76714;SDS011;65644;44.990;20.288;2023-11-22T12:36:46;58.30;;;40.58;;
76714;SDS011;65644;44.990;20.288;2023-11-22T12:39:12;59.53;;;40.15;;
76714;SDS011;65644;44.990;20.288;2023-11-22T12:41:45;57.05;;;39.17;;
76714;SDS011;65644;44.990;20.288;2023-11-22T12:44:13;59.58;;;39.53;;
76714;SDS011;65644;44.990;20.288;2023-11-22T12:46:45;59.95;;;38.53;;
76714;SDS011;65644;44.990;20.288;2023-11-22T12:49:14;58.00;;;38.25;;
76714;SDS011;65644;44.990;20.288;2023-11-22T12:51:50;62.63;;;42.95;;
76714;SDS011;65644;44.990;20.288;2023-11-22T12:54:17;62.00;;;41.92;;
76714;SDS011;65644;44.990;20.288;2023-11-22T12:56:46;63.60;;;43.03;;
76714;SDS011;65644;44.990;20.288;2023-11-22T12:59:14;59.20;;;39.88;;
76714;SDS011;65644;44.990;20.288;2023-11-22T13:01:40;59.00;;;40.70;;
76714;SDS011;65644;44.990;20.288;2023-11-22T13:04:06;73.03;;;48.22;;
76714;SDS011;65644;44.990;20.288;2023-11-22T13:06:33;65.65;;;46.33;;
76714;SDS011;65644;44.990;20.288;2023-11-22T13:08:59;56.58;;;41.47;;
76714;SDS011;65644;44.990;20.288;2023-11-22T13:11:25;50.03;;;37.28;;
76714;SDS011;65644;44.990;20.288;2023-11-22T13:13:51;46.58;;;33.78;;
76714;SDS011;65644;44.990;20.288;2023-11-22T13:16:17;46.90;;;33.47;;
76714;SDS011;65644;44.990;20.288;2023-11-22T13:18:44;44.42;;;32.75;;
76714;SDS011;65644;44.990;20.288;2023-11-22T13:21:10;44.13;;;31.73;;
76714;SDS011;65644;44.990;20.288;2023-11-22T13:23:36;46.05;;;33.08;;
76714;SDS011;65644;44.990;20.288;2023-11-22T13:26:02;45.80;;;33.92;;
76714;SDS011;65644;44.990;20.288;2023-11-22T13:28:30;43.75;;;33.65;;
76714;SDS011;65644;44.990;20.288;2023-11-22T13:30:56;48.60;;;33.80;;
76714;SDS011;65644;44.990;20.288;2023-11-22T13:33:22;47.03;;;33.88;;
76714;SDS011;65644;44.990;20.288;2023-11-22T13:35:49;45.65;;;32.22;;
76714;SDS011;65644;44.990;20.288;2023-11-22T13:38:16;48.13;;;32.65;;
76714;SDS011;65644;44.990;20.288;2023-11-22T13:40:42;48.90;;;34.65;;
76714;SDS011;65644;44.990;20.288;2023-11-22T13:43:10;45.17;;;33.13;;
76714;SDS011;65644;44.990;20.288;2023-11-22T13:45:42;43.60;;;32.63;;
76714;SDS011;65644;44.990;20.288;2023-11-22T13:48:10;51.67;;;35.90;;
76714;SDS011;65644;44.990;20.288;2023-11-22T13:50:36;51.38;;;36.60;;
76714;SDS011;65644;44.990;20.288;2023-11-22T13:53:03;39.92;;;29.15;;
76714;SDS011;65644;44.990;20.288;2023-11-22T13:55:29;39.58;;;29.83;;
76714;SDS011;65644;44.990;20.288;2023-11-22T13:57:56;41.88;;;30.63;;
76714;SDS011;65644;44.990;20.288;2023-11-22T14:00:23;40.53;;;31.10;;
76714;SDS011;65644;44.990;20.288;2023-11-22T14:02:56;43.65;;;31.67;;
76714;SDS011;65644;44.990;20.288;2023-11-22T14:05:23;45.40;;;32.80;;
76714;SDS011;65644;44.990;20.288;2023-11-22T14:07:49;43.90;;;31.60;;
76714;SDS011;65644;44.990;20.288;2023-11-22T14:10:16;42.20;;;31.05;;
76714;SDS011;65644;44.990;20.288;2023-11-22T14:12:43;46.80;;;32.35;;